Time;durP1;ratioP1;P1;durP2;ratioP2;P2;SDS_P1;SDS_P2;PMS_P1;PMS_P2;Temp;Humidity;BMP_temperature;BMP_pressure;BME280_temperature;BME280_humidity;BME280_pressure;Samples;Min_cycle;Max_cycle;Signal;HPM_P1;HPM_P2
2024/01/07 00:00:54;;;;;;;109.80;36.80;;;;;;;;;;5005177;28;20034;-89
2024/01/07 00:03:22;;;;;;;109.43;39.20;;;;;;;;;;5006059;28;20026;-91
2024/01/07 00:05:48;;;;;;;109.13;37.30;;;;;;;;;;5003422;28;20022;-90
2024/01/07 00:08:14;;;;;;;115.90;37.77;;;;;;;;;;5004299;28;20042;-91
2024/01/07 00:10:43;;;;;;;107.30;36.77;;;;;;;;;;5001560;28;20026;-91
2024/01/07 00:13:11;;;;;;;99.07;35.87;;;;;;;;;;5004090;28;20046;-85
2024/01/07 00:15:37;;;;;;;97.23;35.73;;;;;;;;;;5006993;28;20069;-89
2024/01/07 00:18:03;;;;;;;96.43;34.43;;;;;;;;;;5003035;28;20041;-85
2024/01/07 00:20:29;;;;;;;87.47;32.73;;;;;;;;;;4995094;28;20034;-85
2024/01/07 00:22:56;;;;;;;81.50;32.43;;;;;;;;;;4997112;28;20093;-90
2024/01/07 00:25:22;;;;;;;88.67;32.30;;;;;;;;;;4991865;28;20088;-88
2024/01/07 00:27:50;;;;;;;79.33;30.27;;;;;;;;;;5000130;28;20070;-85
2024/01/07 00:30:16;;;;;;;83.73;31.63;;;;;;;;;;4999008;28;20057;-85
2024/01/07 00:32:44;;;;;;;74.77;31.33;;;;;;;;;;5026849;28;20044;-89
2024/01/07 00:35:13;;;;;;;78.70;30.40;;;;;;;;;;4993087;28;20026;-86
2024/01/07 00:37:39;;;;;;;69.90;28.50;;;;;;;;;;5000198;28;20466;-88
2024/01/07 00:40:05;;;;;;;69.80;28.00;;;;;;;;;;4995596;28;20116;-86
2024/01/07 00:42:31;;;;;;;71.30;29.13;;;;;;;;;;4993602;28;20035;-84
2024/01/07 00:44:57;;;;;;;65.33;27.63;;;;;;;;;;4993062;28;20038;-86
2024/01/07 00:47:23;;;;;;;76.03;29.87;;;;;;;;;;4993054;28;20056;-86
2024/01/07 00:49:50;;;;;;;66.30;27.63;;;;;;;;;;4998621;28;20120;-83
2024/01/07 00:52:16;;;;;;;72.33;28.60;;;;;;;;;;4997655;28;20152;-86
2024/01/07 00:54:42;;;;;;;76.17;29.40;;;;;;;;;;5000439;28;20045;-88
2024/01/07 00:57:08;;;;;;;64.67;26.97;;;;;;;;;;4994503;28;20049;-85
2024/01/07 00:59:36;;;;;;;66.40;27.43;;;;;;;;;;4998257;28;20030;-85
2024/01/07 01:02:05;;;;;;;59.83;25.50;;;;;;;;;;5001880;28;20049;-85
2024/01/07 01:04:33;;;;;;;53.20;23.43;;;;;;;;;;5000212;28;20030;-89
2024/01/07 01:07:09;;;;;;;;;;;;;;;;;;;;;
2024/01/07 01:09:36;;;;;;;50.57;22.33;;;;;;;;;;5008339;28;20114;-86
2024/01/07 01:12:02;;;;;;;40.63;19.70;;;;;;;;;;4996775;28;20513;-89
2024/01/07 01:14:28;;;;;;;43.40;19.57;;;;;;;;;;4991236;28;20030;-90
2024/01/07 01:16:54;;;;;;;39.30;17.83;;;;;;;;;;4992840;28;20629;-91
2024/01/07 01:19:21;;;;;;;31.93;15.83;;;;;;;;;;5001612;28;20103;-90
2024/01/07 01:21:47;;;;;;;31.77;15.63;;;;;;;;;;5006757;28;20026;-86
2024/01/07 01:24:13;;;;;;;34.57;16.63;;;;;;;;;;4994257;28;20096;-87
2024/01/07 01:26:45;;;;;;;33.47;14.80;;;;;;;;;;5022946;28;20443;-88
2024/01/07 01:29:11;;;;;;;27.73;14.03;;;;;;;;;;5003185;28;20034;-91
2024/01/07 01:31:37;;;;;;;29.33;14.83;;;;;;;;;;5004588;28;20120;-83
2024/01/07 01:34:03;;;;;;;23.80;12.63;;;;;;;;;;4996351;28;20034;-87
2024/01/07 01:36:31;;;;;;;26.83;13.33;;;;;;;;;;5002843;28;20113;-89
2024/01/07 01:38:57;;;;;;;23.63;12.30;;;;;;;;;;4998913;28;20086;-87
2024/01/07 01:41:23;;;;;;;27.00;14.03;;;;;;;;;;4993318;28;20034;-87
2024/01/07 01:43:50;;;;;;;28.03;12.63;;;;;;;;;;4993346;28;20030;-86
2024/01/07 01:46:16;;;;;;;21.73;11.77;;;;;;;;;;4994531;28;20034;-90
2024/01/07 01:48:45;;;;;;;21.93;11.93;;;;;;;;;;5007486;28;20044;-86
2024/01/07 01:51:11;;;;;;;21.10;10.50;;;;;;;;;;5002284;28;20030;-90
2024/01/07 01:53:43;;;;;;;20.33;11.27;;;;;;;;;;4998058;28;20038;-83
2024/01/07 01:56:14;;;;;;;24.95;12.75;;;;;;;;;;5001760;28;20026;-85
2024/01/07 01:58:40;;;;;;;23.83;11.90;;;;;;;;;;4999825;28;20041;-88
2024/01/07 02:01:07;;;;;;;21.10;11.50;;;;;;;;;;5004260;28;20047;-86
2024/01/07 02:03:39;;;;;;;24.43;11.87;;;;;;;;;;5034768;28;20030;-88
2024/01/07 02:06:05;;;;;;;20.52;11.57;;;;;;;;;;5000550;28;20092;-88
2024/01/07 02:08:34;;;;;;;21.10;11.43;;;;;;;;;;5003547;28;20038;-86
2024/01/07 02:11:21;;;;;;;19.53;10.37;;;;;;;;;;5005874;28;20042;-88
2024/01/07 02:14:24;;;;;;;23.90;11.77;;;;;;;;;;5003397;28;20038;-87
2024/01/07 02:16:50;;;;;;;21.37;11.63;;;;;;;;;;5002018;28;20025;-89
2024/01/07 02:19:16;;;;;;;19.93;11.23;;;;;;;;;;5007470;28;20030;-90
2024/01/07 02:21:42;;;;;;;26.00;12.60;;;;;;;;;;5004274;28;20050;-89
2024/01/07 02:24:15;;;;;;;23.77;11.83;;;;;;;;;;5006482;28;20492;-85
2024/01/07 02:26:41;;;;;;;22.40;11.87;;;;;;;;;;4998935;28;20474;-87
2024/01/07 02:29:07;;;;;;;25.20;11.53;;;;;;;;;;5000529;28;20030;-87
2024/01/07 02:31:33;;;;;;;20.60;11.60;;;;;;;;;;5007156;28;20042;-88
2024/01/07 02:33:59;;;;;;;25.20;13.13;;;;;;;;;;4994394;28;20050;-92
2024/01/07 02:36:25;;;;;;;23.13;12.13;;;;;;;;;;5006898;28;20082;-88
2024/01/07 02:38:51;;;;;;;24.63;12.40;;;;;;;;;;5006252;28;20023;-82
2024/01/07 02:41:17;;;;;;;23.67;12.70;;;;;;;;;;4991674;28;21352;-88
2024/01/07 02:43:43;;;;;;;24.97;13.50;;;;;;;;;;5001003;28;20026;-86
2024/01/07 02:46:09;;;;;;;26.23;13.30;;;;;;;;;;4999113;28;20030;-88
2024/01/07 02:48:35;;;;;;;27.20;14.43;;;;;;;;;;4998362;28;20046;-84
2024/01/07 02:51:03;;;;;;;24.03;12.87;;;;;;;;;;4997532;28;20038;-85
2024/01/07 02:53:29;;;;;;;24.77;13.90;;;;;;;;;;5002117;28;20026;-86
2024/01/07 02:55:55;;;;;;;23.40;13.40;;;;;;;;;;4997256;28;20111;-90
2024/01/07 02:58:21;;;;;;;25.10;14.00;;;;;;;;;;4995215;28;20216;-86
2024/01/07 03:00:47;;;;;;;23.97;13.33;;;;;;;;;;5003257;28;20030;-87
2024/01/07 03:03:13;;;;;;;26.83;13.97;;;;;;;;;;4994285;28;20040;-86
2024/01/07 03:05:42;;;;;;;24.30;12.90;;;;;;;;;;4998443;28;20026;-85
2024/01/07 03:08:08;;;;;;;22.53;12.47;;;;;;;;;;5000985;28;20037;-84
2024/01/07 03:10:34;;;;;;;27.53;13.47;;;;;;;;;;4998931;28;20034;-87
2024/01/07 03:13:03;;;;;;;24.37;13.90;;;;;;;;;;4999930;28;20030;-85
2024/01/07 03:15:29;;;;;;;22.50;13.07;;;;;;;;;;4995988;28;20027;-88
2024/01/07 03:17:55;;;;;;;24.17;12.40;;;;;;;;;;4991498;28;20493;-89
2024/01/07 03:20:21;;;;;;;22.57;13.90;;;;;;;;;;4991603;28;20031;-87
2024/01/07 03:22:47;;;;;;;21.73;12.97;;;;;;;;;;4996831;28;20035;-91
2024/01/07 03:25:13;;;;;;;22.73;12.97;;;;;;;;;;4991156;28;20034;-91
2024/01/07 03:27:42;;;;;;;25.83;12.90;;;;;;;;;;4995880;28;20371;-88
2024/01/07 03:30:10;;;;;;;21.77;13.80;;;;;;;;;;5029410;28;20038;-87
2024/01/07 03:32:36;;;;;;;26.07;14.17;;;;;;;;;;4995040;28;20120;-85
2024/01/07 03:35:03;;;;;;;28.83;14.67;;;;;;;;;;4997332;28;21723;-91
2024/01/07 03:37:29;;;;;;;25.70;14.03;;;;;;;;;;4995620;28;20069;-87
2024/01/07 03:39:54;;;;;;;26.83;15.33;;;;;;;;;;4990440;28;20038;-88
2024/01/07 03:42:21;;;;;;;32.80;15.67;;;;;;;;;;4998840;28;20018;-91
2024/01/07 03:44:49;;;;;;;31.37;16.10;;;;;;;;;;4996949;28;20040;-89
2024/01/07 03:47:16;;;;;;;26.27;13.90;;;;;;;;;;4991726;28;20031;-89
2024/01/07 03:49:42;;;;;;;26.70;15.77;;;;;;;;;;4996638;28;20046;-87
2024/01/07 03:52:08;;;;;;;32.77;16.43;;;;;;;;;;4998734;28;20118;-85
2024/01/07 03:54:34;;;;;;;31.00;15.53;;;;;;;;;;4995245;28;20042;-89
2024/01/07 03:57:00;;;;;;;31.77;16.17;;;;;;;;;;5001082;28;20041;-88
2024/01/07 03:59:26;;;;;;;35.23;18.03;;;;;;;;;;4988336;28;20035;-87
2024/01/07 04:01:56;;;;;;;35.03;17.37;;;;;;;;;;4990753;28;20088;-89
2024/01/07 04:04:22;;;;;;;37.47;18.67;;;;;;;;;;4993040;28;20038;-91
2024/01/07 04:06:48;;;;;;;37.30;17.63;;;;;;;;;;4995413;28;21844;-84
2024/01/07 04:09:14;;;;;;;40.60;19.47;;;;;;;;;;4996709;28;20042;-83
2024/01/07 04:11:43;;;;;;;39.10;19.27;;;;;;;;;;4993059;28;20484;-92
2024/01/07 04:14:09;;;;;;;39.60;19.90;;;;;;;;;;4990625;28;20112;-89
2024/01/07 04:16:35;;;;;;;37.10;18.30;;;;;;;;;;4987274;28;20041;-87
2024/01/07 04:19:02;;;;;;;34.27;18.40;;;;;;;;;;4992621;28;20030;-89
2024/01/07 04:21:30;;;;;;;38.23;17.10;;;;;;;;;;4988170;28;20026;-88
2024/01/07 04:23:56;;;;;;;41.43;18.27;;;;;;;;;;4989475;28;20490;-87
2024/01/07 04:26:22;;;;;;;38.33;18.90;;;;;;;;;;4989053;28;20030;-90
2024/01/07 04:28:48;;;;;;;35.67;18.80;;;;;;;;;;4994931;28;20030;-84
2024/01/07 04:31:14;;;;;;;43.47;20.83;;;;;;;;;;4992403;28;20945;-92
2024/01/07 04:33:40;;;;;;;44.90;20.70;;;;;;;;;;4989117;28;20038;-89
2024/01/07 04:36:06;;;;;;;41.23;20.00;;;;;;;;;;4987966;28;20034;-91
2024/01/07 04:38:32;;;;;;;41.23;20.60;;;;;;;;;;4993642;28;20072;-90
2024/01/07 04:40:58;;;;;;;40.80;20.20;;;;;;;;;;4995952;28;20030;-91
2024/01/07 04:43:24;;;;;;;35.37;17.17;;;;;;;;;;4995599;28;20069;-91
2024/01/07 04:49:01;;;;;;;30.73;15.87;;;;;;;;;;4992014;28;20104;-91
2024/01/07 04:51:27;;;;;;;34.17;17.87;;;;;;;;;;5002557;28;20030;-92
2024/01/07 04:53:53;;;;;;;31.03;16.07;;;;;;;;;;4994974;28;20035;-91
2024/01/07 04:56:19;;;;;;;31.10;16.50;;;;;;;;;;4992778;28;20035;-91
2024/01/07 04:58:45;;;;;;;29.47;16.27;;;;;;;;;;4996912;28;20037;-92
2024/01/07 05:01:11;;;;;;;30.50;16.27;;;;;;;;;;5003104;28;20026;-93
2024/01/07 05:03:37;;;;;;;29.97;16.27;;;;;;;;;;4997012;28;20088;-92
2024/01/07 05:06:04;;;;;;;36.97;18.73;;;;;;;;;;4998284;28;20034;-92
2024/01/07 05:08:30;;;;;;;34.93;17.27;;;;;;;;;;4990574;28;20031;-91
2024/01/07 05:10:56;;;;;;;32.30;16.83;;;;;;;;;;4996625;28;20030;-92
2024/01/07 05:13:22;;;;;;;33.73;19.47;;;;;;;;;;4996635;28;20042;-87
2024/01/07 05:15:53;;;;;;;36.93;17.27;;;;;;;;;;4995996;28;20031;-91
2024/01/07 05:18:23;;;;;;;38.30;19.50;;;;;;;;;;4993209;28;20046;-91
2024/01/07 05:20:49;;;;;;;37.63;18.73;;;;;;;;;;4991313;28;20026;-94
2024/01/07 05:23:15;;;;;;;39.53;21.73;;;;;;;;;;4992374;28;20469;-92
2024/01/07 05:25:44;;;;;;;38.87;18.90;;;;;;;;;;4996186;28;20027;-91
2024/01/07 05:28:13;;;;;;;32.70;19.07;;;;;;;;;;4995491;28;20057;-89
2024/01/07 05:30:39;;;;;;;42.20;20.77;;;;;;;;;;4993308;28;20030;-91
2024/01/07 05:33:05;;;;;;;35.40;19.77;;;;;;;;;;4996697;28;20031;-91
2024/01/07 05:35:32;;;;;;;40.47;19.60;;;;;;;;;;4996149;28;20088;-92
2024/01/07 05:37:58;;;;;;;38.60;20.50;;;;;;;;;;4996389;28;20026;-92
2024/01/07 05:40:24;;;;;;;43.37;20.83;;;;;;;;;;4993676;28;20223;-94
2024/01/07 05:42:50;;;;;;;35.40;19.43;;;;;;;;;;4992921;28;20262;-91
2024/01/07 05:45:16;;;;;;;35.13;18.80;;;;;;;;;;4995795;28;20126;-92
2024/01/07 05:47:42;;;;;;;32.93;17.63;;;;;;;;;;4999192;28;20037;-91
2024/01/07 05:50:08;;;;;;;31.37;18.00;;;;;;;;;;4995962;28;20086;-91
2024/01/07 05:52:34;;;;;;;33.57;18.13;;;;;;;;;;4998539;28;20121;-93
2024/01/07 05:55:00;;;;;;;33.23;16.77;;;;;;;;;;4999921;28;20092;-91
2024/01/07 05:57:27;;;;;;;33.03;17.90;;;;;;;;;;5001906;28;20825;-92
2024/01/07 05:59:53;;;;;;;35.10;17.57;;;;;;;;;;4994438;28;20034;-93
2024/01/07 06:02:19;;;;;;;35.27;18.53;;;;;;;;;;4992353;28;20033;-93
2024/01/07 06:04:45;;;;;;;33.63;18.93;;;;;;;;;;5003102;28;20031;-92
2024/01/07 06:07:11;;;;;;;34.87;19.67;;;;;;;;;;5002604;28;20280;-92
2024/01/07 06:09:37;;;;;;;42.37;20.43;;;;;;;;;;5000066;28;20026;-92
2024/01/07 06:12:03;;;;;;;37.83;19.37;;;;;;;;;;5000097;28;20435;-93
2024/01/07 06:14:29;;;;;;;38.23;20.33;;;;;;;;;;4998178;28;20038;-92
2024/01/07 06:16:55;;;;;;;35.97;18.60;;;;;;;;;;4999590;28;20129;-91
2024/01/07 06:19:21;;;;;;;39.30;19.33;;;;;;;;;;4997122;28;20340;-87
2024/01/07 06:21:47;;;;;;;36.83;17.87;;;;;;;;;;4997844;28;20085;-93
2024/01/07 06:24:13;;;;;;;34.17;19.33;;;;;;;;;;4996143;28;20023;-88
2024/01/07 06:26:42;;;;;;;36.00;19.03;;;;;;;;;;4991161;28;20887;-91
2024/01/07 06:29:11;;;;;;;30.87;17.93;;;;;;;;;;4993526;28;20030;-87
2024/01/07 06:31:44;;;;;;;31.13;17.73;;;;;;;;;;4997443;28;20034;-90
2024/01/07 06:34:13;;;;;;;34.45;18.55;;;;;;;;;;5007696;28;20286;-89
2024/01/07 06:36:39;;;;;;;32.60;18.70;;;;;;;;;;4989586;28;20045;-87
2024/01/07 06:39:05;;;;;;;34.33;19.13;;;;;;;;;;4990503;28;20141;-89
2024/01/07 06:41:31;;;;;;;32.03;17.90;;;;;;;;;;4993036;28;20049;-91
2024/01/07 06:43:57;;;;;;;31.43;17.67;;;;;;;;;;4990156;28;20095;-93
2024/01/07 06:46:23;;;;;;;33.20;18.27;;;;;;;;;;5002323;28;20100;-89
2024/01/07 06:48:49;;;;;;;33.50;17.90;;;;;;;;;;4994506;28;20038;-88
2024/01/07 06:51:15;;;;;;;32.97;18.27;;;;;;;;;;4992119;28;20450;-87
2024/01/07 06:53:41;;;;;;;33.23;18.17;;;;;;;;;;5004091;28;20032;-87
2024/01/07 06:56:07;;;;;;;34.90;18.73;;;;;;;;;;4995729;28;20518;-86
2024/01/07 06:58:33;;;;;;;33.13;18.20;;;;;;;;;;5001567;28;20034;-89
2024/01/07 07:00:59;;;;;;;35.57;17.40;;;;;;;;;;4990603;28;20038;-87
2024/01/07 07:03:25;;;;;;;34.07;16.83;;;;;;;;;;4993050;28;20041;-88
2024/01/07 07:05:54;;;;;;;32.77;17.27;;;;;;;;;;4999129;28;20459;-91
2024/01/07 07:08:19;;;;;;;29.03;15.90;;;;;;;;;;4992870;28;20026;-88
2024/01/07 07:10:45;;;;;;;33.63;16.50;;;;;;;;;;4997829;28;20026;-88
2024/01/07 07:13:12;;;;;;;29.23;16.23;;;;;;;;;;4990070;28;20030;-91
2024/01/07 07:15:38;;;;;;;31.07;16.27;;;;;;;;;;5000175;28;20023;-88
2024/01/07 07:18:04;;;;;;;30.40;16.57;;;;;;;;;;5001492;28;20358;-89
2024/01/07 07:20:30;;;;;;;33.70;16.97;;;;;;;;;;5002183;28;20030;-89
2024/01/07 07:22:56;;;;;;;30.00;17.63;;;;;;;;;;4991143;28;20022;-86
2024/01/07 07:25:22;;;;;;;29.33;16.33;;;;;;;;;;4994203;28;20038;-86
2024/01/07 07:27:48;;;;;;;28.40;15.37;;;;;;;;;;5000953;28;20121;-89
2024/01/07 07:30:15;;;;;;;31.43;17.40;;;;;;;;;;4990083;28;20434;-87
2024/01/07 07:32:41;;;;;;;27.53;15.53;;;;;;;;;;4993938;28;20062;-90
2024/01/07 07:35:07;;;;;;;31.30;17.20;;;;;;;;;;5006898;28;20093;-88
2024/01/07 07:37:33;;;;;;;32.17;17.57;;;;;;;;;;5007796;28;20045;-89
2024/01/07 07:39:59;;;;;;;31.33;17.13;;;;;;;;;;5005113;28;20030;-88
2024/01/07 07:42:25;;;;;;;35.03;17.20;;;;;;;;;;5000933;28;20033;-90
2024/01/07 07:44:51;;;;;;;27.80;15.30;;;;;;;;;;4990795;28;20034;-88
2024/01/07 07:47:17;;;;;;;25.50;13.83;;;;;;;;;;5005650;28;20035;-88
2024/01/07 07:49:46;;;;;;;28.00;15.40;;;;;;;;;;5004305;28;20029;-91
2024/01/07 07:52:15;;;;;;;27.77;15.27;;;;;;;;;;4999046;28;20461;-88
2024/01/07 07:54:41;;;;;;;25.40;14.10;;;;;;;;;;4994596;28;20042;-90
2024/01/07 07:57:07;;;;;;;25.73;14.17;;;;;;;;;;4995480;28;20026;-89
2024/01/07 07:59:33;;;;;;;23.90;14.33;;;;;;;;;;5003273;28;20026;-90
2024/01/07 08:01:59;;;;;;;27.30;14.30;;;;;;;;;;5002519;28;20034;-89
2024/01/07 08:04:26;;;;;;;25.00;14.57;;;;;;;;;;4990634;28;20031;-88
2024/01/07 08:06:52;;;;;;;29.47;15.37;;;;;;;;;;4993626;28;20030;-88
2024/01/07 08:09:18;;;;;;;26.13;14.73;;;;;;;;;;4999618;28;20041;-87
2024/01/07 08:11:44;;;;;;;31.93;15.20;;;;;;;;;;4999328;28;20053;-87
2024/01/07 08:14:10;;;;;;;25.93;14.70;;;;;;;;;;4997962;28;20073;-86
2024/01/07 08:16:36;;;;;;;28.13;14.77;;;;;;;;;;4998043;28;20104;-88
2024/01/07 08:19:02;;;;;;;26.37;13.67;;;;;;;;;;4996816;28;20480;-89
2024/01/07 08:21:28;;;;;;;23.50;13.83;;;;;;;;;;4988267;28;20114;-91
2024/01/07 08:23:54;;;;;;;28.53;15.63;;;;;;;;;;5000857;28;20946;-92
2024/01/07 08:26:23;;;;;;;26.90;15.20;;;;;;;;;;4999137;28;20030;-89
2024/01/07 08:28:49;;;;;;;29.20;15.60;;;;;;;;;;4989266;28;20042;-87
2024/01/07 08:31:15;;;;;;;28.97;15.37;;;;;;;;;;4998939;28;20034;-89
2024/01/07 08:33:43;;;;;;;27.07;15.87;;;;;;;;;;5001947;28;20034;-87
2024/01/07 08:36:09;;;;;;;26.43;14.43;;;;;;;;;;4987263;28;20039;-91
2024/01/07 08:38:35;;;;;;;24.70;13.90;;;;;;;;;;4998257;28;20034;-90
2024/01/07 08:41:01;;;;;;;26.73;14.73;;;;;;;;;;4999050;28;21049;-90
2024/01/07 08:43:27;;;;;;;28.23;15.27;;;;;;;;;;4988968;28;20822;-92
2024/01/07 08:45:53;;;;;;;29.80;16.23;;;;;;;;;;4993705;28;20317;-89
2024/01/07 08:48:19;;;;;;;27.50;15.60;;;;;;;;;;4991201;28;20364;-90
2024/01/07 08:50:46;;;;;;;30.70;16.63;;;;;;;;;;4993122;28;20037;-88
2024/01/07 08:53:12;;;;;;;29.10;16.13;;;;;;;;;;4999769;28;20034;-82
2024/01/07 08:55:38;;;;;;;32.93;18.77;;;;;;;;;;4997359;28;20058;-86
2024/01/07 08:58:06;;;;;;;35.10;18.07;;;;;;;;;;4995424;28;21602;-88
2024/01/07 09:00:31;;;;;;;33.23;17.67;;;;;;;;;;4991019;28;20033;-88
2024/01/07 09:02:57;;;;;;;33.03;18.70;;;;;;;;;;4998385;28;20030;-86
2024/01/07 09:05:24;;;;;;;32.03;17.20;;;;;;;;;;4996322;28;20328;-89
2024/01/07 09:07:50;;;;;;;32.43;17.83;;;;;;;;;;4989324;28;20037;-87
2024/01/07 09:10:17;;;;;;;31.07;16.93;;;;;;;;;;4985664;28;20041;-91
2024/01/07 09:12:43;;;;;;;31.87;17.73;;;;;;;;;;4991850;28;20073;-88
2024/01/07 09:15:10;;;;;;;33.13;19.07;;;;;;;;;;4988827;28;20027;-84
2024/01/07 09:17:37;;;;;;;36.00;19.00;;;;;;;;;;4994525;28;20030;-88
2024/01/07 09:20:07;;;;;;;32.60;17.87;;;;;;;;;;4991459;28;20019;-88
2024/01/07 09:22:33;;;;;;;30.93;16.27;;;;;;;;;;4987572;28;20023;-88
2024/01/07 09:25:01;;;;;;;28.77;16.10;;;;;;;;;;4986857;28;20100;-91
2024/01/07 09:27:27;;;;;;;30.73;17.07;;;;;;;;;;4985182;28;20022;-91
2024/01/07 09:29:55;;;;;;;29.87;16.00;;;;;;;;;;4990220;28;20037;-89
2024/01/07 09:32:21;;;;;;;26.53;15.13;;;;;;;;;;4990811;28;20030;-91
2024/01/07 09:34:47;;;;;;;27.50;15.07;;;;;;;;;;4988355;28;20177;-86
2024/01/07 09:37:15;;;;;;;25.80;13.20;;;;;;;;;;4993625;28;20100;-91
2024/01/07 09:39:42;;;;;;;25.47;13.97;;;;;;;;;;4986112;28;20088;-91
2024/01/07 09:42:12;;;;;;;26.30;14.33;;;;;;;;;;4992491;28;20036;-88
2024/01/07 09:44:38;;;;;;;30.10;14.67;;;;;;;;;;4989784;28;20434;-90
2024/01/07 09:47:06;;;;;;;25.03;14.67;;;;;;;;;;4986224;28;20035;-89
2024/01/07 09:49:32;;;;;;;26.67;13.43;;;;;;;;;;4990244;28;20027;-87
2024/01/07 09:52:01;;;;;;;24.37;13.80;;;;;;;;;;4990172;28;20100;-87
2024/01/07 09:54:27;;;;;;;26.87;14.97;;;;;;;;;;4991650;28;20628;-86
2024/01/07 09:57:00;;;;;;;25.97;14.90;;;;;;;;;;4996224;28;20026;-86
2024/01/07 09:59:26;;;;;;;25.20;14.18;;;;;;;;;;4993190;28;20061;-85
2024/01/07 10:01:54;;;;;;;24.33;14.70;;;;;;;;;;4986484;28;20049;-86
2024/01/07 10:04:20;;;;;;;26.23;15.07;;;;;;;;;;4993574;28;20113;-90
2024/01/07 10:06:49;;;;;;;26.00;14.73;;;;;;;;;;4987797;28;20490;-93
2024/01/07 10:09:21;;;;;;;30.37;14.53;;;;;;;;;;4987169;28;20117;-89
2024/01/07 10:11:47;;;;;;;23.23;14.25;;;;;;;;;;4984152;28;20060;-86
2024/01/07 10:14:13;;;;;;;21.37;13.33;;;;;;;;;;4990426;28;20038;-88
2024/01/07 10:16:42;;;;;;;16.93;9.93;;;;;;;;;;4989258;28;20027;-87
2024/01/07 10:19:43;;;;;;;17.07;10.10;;;;;;;;;;4986386;28;20784;-90
2024/01/07 10:22:09;;;;;;;15.93;9.87;;;;;;;;;;4975226;28;20034;-88
2024/01/07 10:24:39;;;;;;;20.57;10.03;;;;;;;;;;4991248;28;20117;-91
2024/01/07 10:27:06;;;;;;;15.93;10.40;;;;;;;;;;5001756;28;20050;-87
2024/01/07 10:29:32;;;;;;;18.80;10.73;;;;;;;;;;4983471;28;20034;-89
2024/01/07 10:31:59;;;;;;;19.57;11.47;;;;;;;;;;4983289;28;20288;-90
2024/01/07 10:34:25;;;;;;;19.80;11.47;;;;;;;;;;4984198;28;20282;-87
2024/01/07 10:36:56;;;;;;;21.67;12.90;;;;;;;;;;4982875;28;20290;-89
2024/01/07 10:39:22;;;;;;;22.90;13.13;;;;;;;;;;4984395;28;20281;-88
2024/01/07 10:41:48;;;;;;;24.07;12.93;;;;;;;;;;4987728;28;20305;-92
2024/01/07 10:44:14;;;;;;;23.03;13.20;;;;;;;;;;4989461;28;20353;-92
2024/01/07 10:46:40;;;;;;;22.30;14.13;;;;;;;;;;4997030;28;20355;-88
2024/01/07 10:49:38;;;;;;;26.57;15.33;;;;;;;;;;4999099;28;20037;-92
2024/01/07 10:52:06;;;;;;;25.63;13.93;;;;;;;;;;4999161;28;20364;-90
2024/01/07 10:54:38;;;;;;;26.40;14.87;;;;;;;;;;4998889;28;20758;-87
2024/01/07 10:57:24;;;;;;;23.50;13.98;;;;;;;;;;4998368;28;20321;-92
2024/01/07 10:59:52;;;;;;;25.63;15.43;;;;;;;;;;4998850;28;20080;-91
2024/01/07 11:02:18;;;;;;;27.07;14.80;;;;;;;;;;4998701;28;20729;-93
2024/01/07 11:05:21;;;;;;;24.47;14.67;;;;;;;;;;5002658;28;20273;-91
2024/01/07 11:08:05;;;;;;;25.70;15.43;;;;;;;;;;4992236;28;20324;-92
2024/01/07 11:13:41;;;;;;;29.43;14.77;;;;;;;;;;4996923;28;20336;-91
2024/01/07 11:19:16;;;;;;;28.63;16.53;;;;;;;;;;4997420;28;20032;-93
2024/01/07 11:21:45;;;;;;;26.60;14.30;;;;;;;;;;4992847;28;20266;-91
2024/01/07 11:24:31;;;;;;;26.93;15.70;;;;;;;;;;4998106;28;20277;-91
2024/01/07 11:27:02;;;;;;;27.73;15.30;;;;;;;;;;4997718;28;20293;-93
2024/01/07 11:29:28;;;;;;;28.00;14.70;;;;;;;;;;4988059;28;20084;-92
2024/01/07 11:31:56;;;;;;;26.63;14.23;;;;;;;;;;4998240;28;20266;-93
2024/01/07 11:34:47;;;;;;;24.67;14.43;;;;;;;;;;4998230;28;20278;-92
2024/01/07 11:52:54;;;;;;;25.08;14.05;;;;;;;;;;4951237;29;20066;-93
2024/01/07 11:55:21;;;;;;;23.60;13.43;;;;;;;;;;4941928;29;20027;-93
2024/01/07 11:57:49;;;;;;;26.93;13.63;;;;;;;;;;4959039;29;20322;-92
2024/01/07 12:00:15;;;;;;;22.63;13.00;;;;;;;;;;4942273;29;20294;-94
2024/01/07 12:02:41;;;;;;;20.47;13.37;;;;;;;;;;4943512;29;20098;-93
2024/01/07 12:05:07;;;;;;;24.00;13.20;;;;;;;;;;4942156;29;20047;-91
2024/01/07 12:07:36;;;;;;;23.07;13.43;;;;;;;;;;4946513;28;20306;-93
2024/01/07 12:10:05;;;;;;;20.23;12.13;;;;;;;;;;4977616;28;20290;-90
2024/01/07 12:13:09;;;;;;;23.67;12.00;;;;;;;;;;4977262;28;20274;-93
2024/01/07 12:15:55;;;;;;;22.75;12.93;;;;;;;;;;4974958;28;20329;-95
2024/01/07 12:18:25;;;;;;;19.40;12.07;;;;;;;;;;4958882;28;20081;-88
2024/01/07 12:20:58;;;;;;;20.83;12.80;;;;;;;;;;4957548;28;20312;-86
2024/01/07 12:23:25;;;;;;;;;;;;;;;;;;4985465;28;20547;-87
2024/01/07 12:25:51;;;;;;;19.07;10.97;;;;;;;;;;4993910;28;19957;-88
2024/01/07 12:28:22;;;;;;;20.80;11.73;;;;;;;;;;4986968;28;20288;-91
2024/01/07 12:30:49;;;;;;;17.60;10.73;;;;;;;;;;4987342;28;20030;-92
2024/01/07 12:33:20;;;;;;;19.47;11.10;;;;;;;;;;4992673;28;20285;-86
2024/01/07 12:35:46;;;;;;;17.87;10.20;;;;;;;;;;4995414;28;20277;-87
2024/01/07 12:38:12;;;;;;;17.33;8.97;;;;;;;;;;4984942;28;20278;-84
2024/01/07 12:40:39;;;;;;;15.87;9.90;;;;;;;;;;4987241;28;20285;-90
2024/01/07 12:43:06;;;;;;;15.43;9.10;;;;;;;;;;4993497;28;20034;-91
2024/01/07 12:45:35;;;;;;;16.13;9.53;;;;;;;;;;4994168;28;20312;-89
2024/01/07 12:48:02;;;;;;;17.23;9.17;;;;;;;;;;4988902;28;20318;-88
2024/01/07 12:50:29;;;;;;;15.80;9.20;;;;;;;;;;4993630;28;20317;-88
2024/01/07 12:52:58;;;;;;;18.23;10.47;;;;;;;;;;4984843;28;20400;-89
2024/01/07 12:55:25;;;;;;;18.43;11.10;;;;;;;;;;4990844;28;20280;-92
2024/01/07 12:57:51;;;;;;;17.37;10.47;;;;;;;;;;4989418;28;20290;-91
2024/01/07 13:00:20;;;;;;;18.23;10.53;;;;;;;;;;4996919;28;20277;-90
2024/01/07 13:02:46;;;;;;;17.70;10.27;;;;;;;;;;4990318;28;20284;-90
2024/01/07 13:05:12;;;;;;;14.47;8.30;;;;;;;;;;4992416;28;21203;-89
2024/01/07 13:07:38;;;;;;;17.77;9.83;;;;;;;;;;5001556;28;20022;-93
2024/01/07 13:10:04;;;;;;;15.40;8.67;;;;;;;;;;5001423;28;20066;-90
2024/01/07 13:12:30;;;;;;;13.07;7.40;;;;;;;;;;4990270;28;20365;-90
2024/01/07 13:14:56;;;;;;;16.37;8.67;;;;;;;;;;5000318;28;20631;-92
2024/01/07 13:17:22;;;;;;;14.10;7.53;;;;;;;;;;4987804;28;20030;-93
2024/01/07 13:19:48;;;;;;;10.53;7.07;;;;;;;;;;4997773;28;20023;-91
2024/01/07 13:22:14;;;;;;;15.60;7.53;;;;;;;;;;4999055;28;20134;-90
2024/01/07 13:24:40;;;;;;;10.93;6.43;;;;;;;;;;4995154;28;20038;-92
2024/01/07 13:27:08;;;;;;;10.73;7.00;;;;;;;;;;4990059;28;20273;-89
2024/01/07 13:29:34;;;;;;;11.80;7.27;;;;;;;;;;4998047;28;20284;-91
2024/01/07 13:32:01;;;;;;;12.63;7.40;;;;;;;;;;4993645;28;20281;-88
2024/01/07 13:34:27;;;;;;;10.37;6.50;;;;;;;;;;4988723;28;20277;-90
2024/01/07 13:36:53;;;;;;;12.00;7.33;;;;;;;;;;4990665;28;20380;-90
2024/01/07 13:39:21;;;;;;;10.00;6.23;;;;;;;;;;5003120;28;21819;-85
2024/01/07 13:41:47;;;;;;;13.70;7.57;;;;;;;;;;5007045;28;20041;-89
2024/01/07 13:44:17;;;;;;;13.90;8.23;;;;;;;;;;4998602;28;20372;-83
2024/01/07 13:46:48;;;;;;;14.10;8.13;;;;;;;;;;5005595;28;20590;-88
2024/01/07 13:49:15;;;;;;;11.40;8.00;;;;;;;;;;4997854;28;20536;-89
2024/01/07 13:51:41;;;;;;;9.83;7.07;;;;;;;;;;4998908;28;20285;-87
2024/01/07 13:54:10;;;;;;;12.00;7.50;;;;;;;;;;4991368;28;20281;-84
2024/01/07 13:56:37;;;;;;;9.77;6.07;;;;;;;;;;4996573;28;20349;-89
2024/01/07 13:59:03;;;;;;;8.67;5.83;;;;;;;;;;5008203;28;21173;-88
2024/01/07 14:01:29;;;;;;;12.50;7.30;;;;;;;;;;4992303;28;20270;-91
2024/01/07 14:03:55;;;;;;;11.23;7.23;;;;;;;;;;4997707;28;20069;-87
2024/01/07 14:06:21;;;;;;;12.07;7.57;;;;;;;;;;5001689;28;20361;-88
2024/01/07 14:08:47;;;;;;;13.63;7.73;;;;;;;;;;4998256;28;20312;-88
2024/01/07 14:11:13;;;;;;;11.03;7.23;;;;;;;;;;4994123;28;20265;-83
2024/01/07 14:13:40;;;;;;;11.43;6.53;;;;;;;;;;5007485;28;20312;-87
2024/01/07 14:16:06;;;;;;;11.07;6.90;;;;;;;;;;5004954;28;20064;-93
2024/01/07 14:18:32;;;;;;;9.47;5.93;;;;;;;;;;4993240;28;20270;-86
2024/01/07 14:20:58;;;;;;;9.87;5.77;;;;;;;;;;4994741;28;20306;-88
2024/01/07 14:23:27;;;;;;;10.27;5.93;;;;;;;;;;4998426;28;20274;-92
2024/01/07 14:25:55;;;;;;;11.77;6.87;;;;;;;;;;4993708;28;20269;-90
2024/01/07 14:28:21;;;;;;;11.60;7.00;;;;;;;;;;4989199;28;21338;-81
2024/01/07 14:30:47;;;;;;;10.50;6.77;;;;;;;;;;4996568;28;20500;-91
2024/01/07 14:33:13;;;;;;;11.13;6.37;;;;;;;;;;5006183;28;21202;-91
2024/01/07 14:35:39;;;;;;;9.67;6.07;;;;;;;;;;5000865;28;20329;-91
2024/01/07 14:38:05;;;;;;;7.83;4.90;;;;;;;;;;5006150;28;20293;-91
2024/01/07 14:40:31;;;;;;;7.27;4.23;;;;;;;;;;5002757;28;20284;-92
2024/01/07 14:42:58;;;;;;;6.83;3.87;;;;;;;;;;4992699;28;20879;-90
2024/01/07 14:45:27;;;;;;;7.53;4.10;;;;;;;;;;4988659;28;20293;-91
2024/01/07 14:47:56;;;;;;;6.50;3.97;;;;;;;;;;4994041;28;20278;-84